sensor_id;sensor_type;location;lat;lon;timestamp;temperature;humidity
2300;DHT22;1158;48.750;9.078;2022-11-27T00:02:11;-1.70;99.90
2300;DHT22;1158;48.750;9.078;2022-11-27T00:04:38;-1.70;99.90
2300;DHT22;1158;48.750;9.078;2022-11-27T00:07:05;-1.70;99.90
2300;DHT22;1158;48.750;9.078;2022-11-27T00:09:32;-1.70;99.90
2300;DHT22;1158;48.750;9.078;2022-11-27T00:11:59;-1.80;99.90
2300;DHT22;1158;48.750;9.078;2022-11-27T00:14:27;-1.80;99.90
2300;DHT22;1158;48.750;9.078;2022-11-27T00:16:54;-1.80;99.90
2300;DHT22;1158;48.750;9.078;2022-11-27T00:19:22;-1.80;99.90
2300;DHT22;1158;48.750;9.078;2022-11-27T00:21:48;-1.80;99.90
2300;DHT22;1158;48.750;9.078;2022-11-27T00:24:15;-1.80;99.90
2300;DHT22;1158;48.750;9.078;2022-11-27T00:26:42;-1.80;99.90
2300;DHT22;1158;48.750;9.078;2022-11-27T00:29:09;-1.90;99.90
2300;DHT22;1158;48.750;9.078;2022-11-27T00:31:37;-1.90;99.90
2300;DHT22;1158;48.750;9.078;2022-11-27T00:34:06;-2.00;99.90
2300;DHT22;1158;48.750;9.078;2022-11-27T00:36:34;-2.00;99.90
2300;DHT22;1158;48.750;9.078;2022-11-27T00:39:01;-2.00;99.90
2300;DHT22;1158;48.750;9.078;2022-11-27T00:41:29;-2.00;99.90
2300;DHT22;1158;48.750;9.078;2022-11-27T00:43:57;-2.00;99.90
2300;DHT22;1158;48.750;9.078;2022-11-27T00:46:26;-2.00;99.90
2300;DHT22;1158;48.750;9.078;2022-11-27T00:48:55;-2.00;99.90
2300;DHT22;1158;48.750;9.078;2022-11-27T00:51:23;-2.10;99.90
2300;DHT22;1158;48.750;9.078;2022-11-27T00:53:51;-2.10;99.90
2300;DHT22;1158;48.750;9.078;2022-11-27T00:56:20;-2.10;99.90
2300;DHT22;1158;48.750;9.078;2022-11-27T00:58:47;-2.10;99.90
2300;DHT22;1158;48.750;9.078;2022-11-27T01:01:15;-2.10;99.90
2300;DHT22;1158;48.750;9.078;2022-11-27T01:03:43;-2.00;99.90
2300;DHT22;1158;48.750;9.078;2022-11-27T01:06:12;-2.00;99.90
2300;DHT22;1158;48.750;9.078;2022-11-27T01:08:40;-2.10;99.90
2300;DHT22;1158;48.750;9.078;2022-11-27T01:11:12;-2.10;99.90
2300;DHT22;1158;48.750;9.078;2022-11-27T01:13:40;-2.10;99.90
2300;DHT22;1158;48.750;9.078;2022-11-27T01:16:09;-2.10;99.90
2300;DHT22;1158;48.750;9.078;2022-11-27T01:18:37;-2.10;99.90
2300;DHT22;1158;48.750;9.078;2022-11-27T01:21:04;-2.20;99.90
2300;DHT22;1158;48.750;9.078;2022-11-27T01:23:33;-2.20;99.90
2300;DHT22;1158;48.750;9.078;2022-11-27T01:26:00;-2.30;99.90
2300;DHT22;1158;48.750;9.078;2022-11-27T01:28:28;-2.30;99.90
2300;DHT22;1158;48.750;9.078;2022-11-27T01:30:55;-2.30;99.90
2300;DHT22;1158;48.750;9.078;2022-11-27T01:33:22;-2.30;99.90
2300;DHT22;1158;48.750;9.078;2022-11-27T01:35:53;-2.30;99.90
2300;DHT22;1158;48.750;9.078;2022-11-27T01:38:21;-2.20;99.90
2300;DHT22;1158;48.750;9.078;2022-11-27T01:40:54;-2.20;99.90
2300;DHT22;1158;48.750;9.078;2022-11-27T01:43:35;-2.20;99.90
2300;DHT22;1158;48.750;9.078;2022-11-27T01:46:03;-2.20;99.90
2300;DHT22;1158;48.750;9.078;2022-11-27T01:48:30;-2.20;99.90
2300;DHT22;1158;48.750;9.078;2022-11-27T01:50:57;-2.30;99.90
2300;DHT22;1158;48.750;9.078;2022-11-27T01:53:24;-2.30;99.90
2300;DHT22;1158;48.750;9.078;2022-11-27T01:55:55;-2.30;99.90
2300;DHT22;1158;48.750;9.078;2022-11-27T01:58:27;-2.40;99.90
2300;DHT22;1158;48.750;9.078;2022-11-27T02:00:55;-2.40;99.90
2300;DHT22;1158;48.750;9.078;2022-11-27T02:03:22;-2.30;99.90
2300;DHT22;1158;48.750;9.078;2022-11-27T02:05:48;-2.30;99.90
2300;DHT22;1158;48.750;9.078;2022-11-27T02:08:16;-2.20;99.90
2300;DHT22;1158;48.750;9.078;2022-11-27T02:10:48;-2.20;99.90
2300;DHT22;1158;48.750;9.078;2022-11-27T02:13:22;-2.20;99.90
2300;DHT22;1158;48.750;9.078;2022-11-27T02:15:59;-2.30;99.90
2300;DHT22;1158;48.750;9.078;2022-11-27T02:18:32;-2.30;99.90
2300;DHT22;1158;48.750;9.078;2022-11-27T02:21:05;-2.40;99.90
2300;DHT22;1158;48.750;9.078;2022-11-27T02:24:00;-2.50;99.90
2300;DHT22;1158;48.750;9.078;2022-11-27T02:26:51;-2.50;99.90
2300;DHT22;1158;48.750;9.078;2022-11-27T02:29:25;-2.60;99.90
2300;DHT22;1158;48.750;9.078;2022-11-27T02:31:56;-2.60;99.90
2300;DHT22;1158;48.750;9.078;2022-11-27T02:34:29;-2.60;99.90
2300;DHT22;1158;48.750;9.078;2022-11-27T02:37:02;-2.50;99.90
2300;DHT22;1158;48.750;9.078;2022-11-27T02:39:35;-2.50;99.90
2300;DHT22;1158;48.750;9.078;2022-11-27T02:42:08;-2.50;99.90
2300;DHT22;1158;48.750;9.078;2022-11-27T02:44:43;-2.50;99.90
2300;DHT22;1158;48.750;9.078;2022-11-27T02:47:12;-2.60;99.90
2300;DHT22;1158;48.750;9.078;2022-11-27T02:49:41;-2.60;99.90
2300;DHT22;1158;48.750;9.078;2022-11-27T02:52:11;-2.70;99.90
2300;DHT22;1158;48.750;9.078;2022-11-27T02:54:39;-2.70;99.90
2300;DHT22;1158;48.750;9.078;2022-11-27T02:57:07;-2.70;99.90
2300;DHT22;1158;48.750;9.078;2022-11-27T02:59:35;-2.70;99.90
2300;DHT22;1158;48.750;9.078;2022-11-27T03:02:09;-2.70;99.90
2300;DHT22;1158;48.750;9.078;2022-11-27T03:04:40;-2.60;99.90
2300;DHT22;1158;48.750;9.078;2022-11-27T03:07:12;-2.60;99.90
2300;DHT22;1158;48.750;9.078;2022-11-27T03:09:43;-2.60;99.90
2300;DHT22;1158;48.750;9.078;2022-11-27T03:12:13;-2.60;99.90
2300;DHT22;1158;48.750;9.078;2022-11-27T03:14:41;-2.60;99.90
2300;DHT22;1158;48.750;9.078;2022-11-27T03:17:22;-2.60;99.90
2300;DHT22;1158;48.750;9.078;2022-11-27T03:19:55;-2.60;99.90
2300;DHT22;1158;48.750;9.078;2022-11-27T03:22:22;-2.70;99.90
2300;DHT22;1158;48.750;9.078;2022-11-27T03:24:51;-2.60;99.90
2300;DHT22;1158;48.750;9.078;2022-11-27T03:27:21;-2.60;99.90
2300;DHT22;1158;48.750;9.078;2022-11-27T03:29:51;-2.60;99.90
2300;DHT22;1158;48.750;9.078;2022-11-27T03:32:22;-2.70;99.90
2300;DHT22;1158;48.750;9.078;2022-11-27T03:34:49;-2.70;99.90
2300;DHT22;1158;48.750;9.078;2022-11-27T03:37:16;-2.80;99.90
2300;DHT22;1158;48.750;9.078;2022-11-27T03:39:43;-2.80;99.90
2300;DHT22;1158;48.750;9.078;2022-11-27T03:42:14;-2.80;99.90
2300;DHT22;1158;48.750;9.078;2022-11-27T03:44:47;-2.90;99.90
2300;DHT22;1158;48.750;9.078;2022-11-27T03:47:29;-2.90;99.90
2300;DHT22;1158;48.750;9.078;2022-11-27T03:50:10;-2.90;99.90
2300;DHT22;1158;48.750;9.078;2022-11-27T03:52:45;-2.90;99.90
2300;DHT22;1158;48.750;9.078;2022-11-27T03:55:22;-2.90;99.90
2300;DHT22;1158;48.750;9.078;2022-11-27T03:57:56;-2.90;99.90
2300;DHT22;1158;48.750;9.078;2022-11-27T04:00:26;-2.80;99.90
2300;DHT22;1158;48.750;9.078;2022-11-27T04:02:55;-2.90;99.90
2300;DHT22;1158;48.750;9.078;2022-11-27T04:05:22;-2.90;99.90
2300;DHT22;1158;48.750;9.078;2022-11-27T04:07:49;-2.90;99.90
2300;DHT22;1158;48.750;9.078;2022-11-27T04:10:16;-2.80;99.90
2300;DHT22;1158;48.750;9.078;2022-11-27T04:12:42;-2.80;99.90
2300;DHT22;1158;48.750;9.078;2022-11-27T04:15:10;-2.80;99.90
2300;DHT22;1158;48.750;9.078;2022-11-27T04:17:37;-2.80;99.90
2300;DHT22;1158;48.750;9.078;2022-11-27T04:20:06;-2.80;99.90
2300;DHT22;1158;48.750;9.078;2022-11-27T04:22:33;-2.90;99.90
2300;DHT22;1158;48.750;9.078;2022-11-27T04:25:00;-2.90;99.90
2300;DHT22;1158;48.750;9.078;2022-11-27T04:27:27;-2.80;99.90
2300;DHT22;1158;48.750;9.078;2022-11-27T04:29:54;-2.70;99.90
2300;DHT22;1158;48.750;9.078;2022-11-27T04:32:21;-2.60;99.90
2300;DHT22;1158;48.750;9.078;2022-11-27T04:34:47;-2.60;99.90
2300;DHT22;1158;48.750;9.078;2022-11-27T04:37:15;-2.60;99.90
2300;DHT22;1158;48.750;9.078;2022-11-27T04:39:42;-2.60;99.90
2300;DHT22;1158;48.750;9.078;2022-11-27T04:42:09;-2.50;99.90
2300;DHT22;1158;48.750;9.078;2022-11-27T04:44:36;-2.60;99.90
2300;DHT22;1158;48.750;9.078;2022-11-27T04:47:03;-2.60;99.90
2300;DHT22;1158;48.750;9.078;2022-11-27T04:49:29;-2.70;99.90
2300;DHT22;1158;48.750;9.078;2022-11-27T04:51:56;-2.70;99.90
2300;DHT22;1158;48.750;9.078;2022-11-27T04:54:24;-2.80;99.90
2300;DHT22;1158;48.750;9.078;2022-11-27T04:56:51;-2.80;99.90
2300;DHT22;1158;48.750;9.078;2022-11-27T04:59:18;-2.90;99.90
2300;DHT22;1158;48.750;9.078;2022-11-27T05:01:45;-3.00;99.90
2300;DHT22;1158;48.750;9.078;2022-11-27T05:04:11;-3.00;99.90
2300;DHT22;1158;48.750;9.078;2022-11-27T05:06:38;-3.00;99.90
2300;DHT22;1158;48.750;9.078;2022-11-27T05:09:05;-3.00;99.90
2300;DHT22;1158;48.750;9.078;2022-11-27T05:11:33;-3.00;99.90
2300;DHT22;1158;48.750;9.078;2022-11-27T05:14:00;-3.00;99.90
2300;DHT22;1158;48.750;9.078;2022-11-27T05:16:44;-3.10;99.90
2300;DHT22;1158;48.750;9.078;2022-11-27T05:19:12;-3.10;99.90
2300;DHT22;1158;48.750;9.078;2022-11-27T05:21:40;-3.00;99.90
2300;DHT22;1158;48.750;9.078;2022-11-27T05:24:07;-3.00;99.90
2300;DHT22;1158;48.750;9.078;2022-11-27T05:26:36;-3.10;99.90
2300;DHT22;1158;48.750;9.078;2022-11-27T05:29:04;-3.10;99.90
2300;DHT22;1158;48.750;9.078;2022-11-27T05:31:31;-3.10;99.90
2300;DHT22;1158;48.750;9.078;2022-11-27T05:33:58;-3.10;99.90
2300;DHT22;1158;48.750;9.078;2022-11-27T05:36:25;-3.10;99.90
2300;DHT22;1158;48.750;9.078;2022-11-27T05:38:51;-3.00;99.90
2300;DHT22;1158;48.750;9.078;2022-11-27T05:41:18;-3.00;99.90
2300;DHT22;1158;48.750;9.078;2022-11-27T05:43:46;-3.00;99.90
2300;DHT22;1158;48.750;9.078;2022-11-27T05:46:16;-3.00;99.90
2300;DHT22;1158;48.750;9.078;2022-11-27T05:48:43;-3.00;99.90
2300;DHT22;1158;48.750;9.078;2022-11-27T05:51:10;-3.10;99.90
2300;DHT22;1158;48.750;9.078;2022-11-27T05:53:36;-3.10;99.90
2300;DHT22;1158;48.750;9.078;2022-11-27T05:56:04;-3.10;99.90
2300;DHT22;1158;48.750;9.078;2022-11-27T05:58:32;-3.10;99.90
2300;DHT22;1158;48.750;9.078;2022-11-27T06:01:00;-3.10;99.90
2300;DHT22;1158;48.750;9.078;2022-11-27T06:03:27;-3.10;99.90
2300;DHT22;1158;48.750;9.078;2022-11-27T06:05:54;-3.10;99.90
2300;DHT22;1158;48.750;9.078;2022-11-27T06:08:21;-3.20;99.90
2300;DHT22;1158;48.750;9.078;2022-11-27T06:10:48;-3.30;99.90
2300;DHT22;1158;48.750;9.078;2022-11-27T06:13:15;-3.40;99.90
2300;DHT22;1158;48.750;9.078;2022-11-27T06:15:42;-3.40;99.90
2300;DHT22;1158;48.750;9.078;2022-11-27T06:18:10;-3.40;99.90
2300;DHT22;1158;48.750;9.078;2022-11-27T06:20:38;-3.40;99.90
2300;DHT22;1158;48.750;9.078;2022-11-27T06:23:04;-3.30;99.90
2300;DHT22;1158;48.750;9.078;2022-11-27T06:25:31;-3.30;99.90
2300;DHT22;1158;48.750;9.078;2022-11-27T06:27:58;-3.30;99.90
2300;DHT22;1158;48.750;9.078;2022-11-27T06:30:25;-3.30;99.90
2300;DHT22;1158;48.750;9.078;2022-11-27T06:32:51;-3.40;99.90
2300;DHT22;1158;48.750;9.078;2022-11-27T06:35:19;-3.40;99.90
2300;DHT22;1158;48.750;9.078;2022-11-27T06:37:47;-3.40;99.90
2300;DHT22;1158;48.750;9.078;2022-11-27T06:40:14;-3.40;99.90
2300;DHT22;1158;48.750;9.078;2022-11-27T06:42:41;-3.40;99.90
2300;DHT22;1158;48.750;9.078;2022-11-27T06:45:08;-3.40;99.90
2300;DHT22;1158;48.750;9.078;2022-11-27T06:47:35;-3.40;99.90
2300;DHT22;1158;48.750;9.078;2022-11-27T06:50:02;-3.30;99.90
2300;DHT22;1158;48.750;9.078;2022-11-27T06:52:30;-3.20;99.90
2300;DHT22;1158;48.750;9.078;2022-11-27T06:54:57;-3.20;99.90
2300;DHT22;1158;48.750;9.078;2022-11-27T06:57:23;-3.10;99.90
2300;DHT22;1158;48.750;9.078;2022-11-27T06:59:50;-3.10;99.90
2300;DHT22;1158;48.750;9.078;2022-11-27T07:02:17;-3.00;99.90
2300;DHT22;1158;48.750;9.078;2022-11-27T07:04:44;-3.00;99.90
2300;DHT22;1158;48.750;9.078;2022-11-27T07:07:11;-2.90;99.90
2300;DHT22;1158;48.750;9.078;2022-11-27T07:09:39;-2.80;99.90
2300;DHT22;1158;48.750;9.078;2022-11-27T07:12:06;-2.70;99.90
2300;DHT22;1158;48.750;9.078;2022-11-27T07:14:33;-2.70;99.90
2300;DHT22;1158;48.750;9.078;2022-11-27T07:16:59;-2.50;99.90
2300;DHT22;1158;48.750;9.078;2022-11-27T07:19:26;-2.30;99.90
2300;DHT22;1158;48.750;9.078;2022-11-27T07:21:53;-2.10;99.90
2300;DHT22;1158;48.750;9.078;2022-11-27T07:24:20;-1.80;99.90
2300;DHT22;1158;48.750;9.078;2022-11-27T07:26:48;-1.60;99.90
2300;DHT22;1158;48.750;9.078;2022-11-27T07:29:14;-1.30;99.90
2300;DHT22;1158;48.750;9.078;2022-11-27T07:31:41;-1.10;99.90
2300;DHT22;1158;48.750;9.078;2022-11-27T07:34:08;-0.90;99.90
2300;DHT22;1158;48.750;9.078;2022-11-27T07:36:35;-0.70;99.90
2300;DHT22;1158;48.750;9.078;2022-11-27T07:39:01;-0.70;99.90
2300;DHT22;1158;48.750;9.078;2022-11-27T07:41:28;-0.90;99.90
2300;DHT22;1158;48.750;9.078;2022-11-27T07:43:56;-0.70;99.90
2300;DHT22;1158;48.750;9.078;2022-11-27T07:46:23;-0.60;99.90
2300;DHT22;1158;48.750;9.078;2022-11-27T07:48:50;-0.40;99.90
2300;DHT22;1158;48.750;9.078;2022-11-27T07:51:20;-0.10;99.90
2300;DHT22;1158;48.750;9.078;2022-11-27T07:53:47;0.00;99.90
2300;DHT22;1158;48.750;9.078;2022-11-27T07:56:16;0.30;99.90
2300;DHT22;1158;48.750;9.078;2022-11-27T07:58:43;0.40;99.90
2300;DHT22;1158;48.750;9.078;2022-11-27T08:01:13;0.50;99.90
2300;DHT22;1158;48.750;9.078;2022-11-27T08:03:40;0.90;99.90
2300;DHT22;1158;48.750;9.078;2022-11-27T08:06:14;1.30;99.90
2300;DHT22;1158;48.750;9.078;2022-11-27T08:08:41;1.20;99.90
2300;DHT22;1158;48.750;9.078;2022-11-27T08:11:15;1.90;99.90
2300;DHT22;1158;48.750;9.078;2022-11-27T08:13:42;3.50;99.90
2300;DHT22;1158;48.750;9.078;2022-11-27T08:16:09;4.00;99.90
2300;DHT22;1158;48.750;9.078;2022-11-27T08:18:37;3.50;99.90
2300;DHT22;1158;48.750;9.078;2022-11-27T08:21:04;4.10;99.90
2300;DHT22;1158;48.750;9.078;2022-11-27T08:23:31;4.90;99.90
2300;DHT22;1158;48.750;9.078;2022-11-27T08:25:58;5.90;99.90
2300;DHT22;1158;48.750;9.078;2022-11-27T08:28:25;6.80;99.90
2300;DHT22;1158;48.750;9.078;2022-11-27T08:30:55;7.50;99.90
2300;DHT22;1158;48.750;9.078;2022-11-27T08:33:22;8.50;99.90
2300;DHT22;1158;48.750;9.078;2022-11-27T08:35:50;8.60;99.90
2300;DHT22;1158;48.750;9.078;2022-11-27T08:38:18;8.40;99.90
2300;DHT22;1158;48.750;9.078;2022-11-27T08:40:52;8.40;99.90
2300;DHT22;1158;48.750;9.078;2022-11-27T08:43:19;8.20;99.90
2300;DHT22;1158;48.750;9.078;2022-11-27T08:45:46;8.00;99.90
2300;DHT22;1158;48.750;9.078;2022-11-27T08:48:13;7.00;99.90
2300;DHT22;1158;48.750;9.078;2022-11-27T08:50:40;6.50;99.90
2300;DHT22;1158;48.750;9.078;2022-11-27T08:53:08;6.10;99.90
2300;DHT22;1158;48.750;9.078;2022-11-27T08:55:35;6.30;99.90
2300;DHT22;1158;48.750;9.078;2022-11-27T08:58:01;6.90;99.90
2300;DHT22;1158;48.750;9.078;2022-11-27T09:00:29;6.60;99.90
2300;DHT22;1158;48.750;9.078;2022-11-27T09:02:57;7.00;99.90
2300;DHT22;1158;48.750;9.078;2022-11-27T09:05:24;6.80;99.90
2300;DHT22;1158;48.750;9.078;2022-11-27T09:07:51;7.10;99.90
2300;DHT22;1158;48.750;9.078;2022-11-27T09:10:19;7.30;99.90
2300;DHT22;1158;48.750;9.078;2022-11-27T09:12:47;7.10;99.90
2300;DHT22;1158;48.750;9.078;2022-11-27T09:15:14;6.90;99.90
2300;DHT22;1158;48.750;9.078;2022-11-27T09:17:41;6.60;99.90
2300;DHT22;1158;48.750;9.078;2022-11-27T09:20:09;6.40;99.90
2300;DHT22;1158;48.750;9.078;2022-11-27T09:22:38;6.50;99.90
2300;DHT22;1158;48.750;9.078;2022-11-27T09:25:06;6.40;99.90
2300;DHT22;1158;48.750;9.078;2022-11-27T09:27:35;6.20;99.90
2300;DHT22;1158;48.750;9.078;2022-11-27T09:30:03;6.00;99.90
2300;DHT22;1158;48.750;9.078;2022-11-27T09:32:30;5.90;99.90
2300;DHT22;1158;48.750;9.078;2022-11-27T09:34:56;5.70;99.90
2300;DHT22;1158;48.750;9.078;2022-11-27T09:37:23;5.70;99.90
2300;DHT22;1158;48.750;9.078;2022-11-27T09:39:50;5.70;99.90
2300;DHT22;1158;48.750;9.078;2022-11-27T09:42:35;5.70;99.90
2300;DHT22;1158;48.750;9.078;2022-11-27T09:45:05;6.10;99.90
2300;DHT22;1158;48.750;9.078;2022-11-27T09:47:37;6.40;99.90
2300;DHT22;1158;48.750;9.078;2022-11-27T09:50:12;6.60;99.90
2300;DHT22;1158;48.750;9.078;2022-11-27T09:52:41;6.60;99.90
2300;DHT22;1158;48.750;9.078;2022-11-27T09:55:14;6.80;99.90
2300;DHT22;1158;48.750;9.078;2022-11-27T09:57:52;7.30;99.90
2300;DHT22;1158;48.750;9.078;2022-11-27T10:00:20;7.50;99.90
2300;DHT22;1158;48.750;9.078;2022-11-27T10:02:47;7.90;99.90
2300;DHT22;1158;48.750;9.078;2022-11-27T10:05:18;8.10;99.90
2300;DHT22;1158;48.750;9.078;2022-11-27T10:07:59;8.80;99.90
2300;DHT22;1158;48.750;9.078;2022-11-27T10:10:38;9.50;99.90
2300;DHT22;1158;48.750;9.078;2022-11-27T10:13:17;10.10;99.90
2300;DHT22;1158;48.750;9.078;2022-11-27T10:15:51;10.50;99.90
2300;DHT22;1158;48.750;9.078;2022-11-27T10:18:27;11.10;99.90
2300;DHT22;1158;48.750;9.078;2022-11-27T10:20:58;11.10;99.90
2300;DHT22;1158;48.750;9.078;2022-11-27T10:23:37;11.10;99.90
2300;DHT22;1158;48.750;9.078;2022-11-27T10:26:12;10.10;99.90
2300;DHT22;1158;48.750;9.078;2022-11-27T10:28:47;9.40;99.90
2300;DHT22;1158;48.750;9.078;2022-11-27T10:31:18;9.10;99.90
2300;DHT22;1158;48.750;9.078;2022-11-27T10:33:50;9.00;99.90
2300;DHT22;1158;48.750;9.078;2022-11-27T10:36:26;8.90;99.90
2300;DHT22;1158;48.750;9.078;2022-11-27T10:38:54;9.00;99.90
2300;DHT22;1158;48.750;9.078;2022-11-27T10:41:24;8.60;99.90
2300;DHT22;1158;48.750;9.078;2022-11-27T10:43:57;8.50;99.90
2300;DHT22;1158;48.750;9.078;2022-11-27T10:46:27;8.30;99.90
2300;DHT22;1158;48.750;9.078;2022-11-27T10:48:55;8.30;99.90
2300;DHT22;1158;48.750;9.078;2022-11-27T10:51:29;8.40;99.90
2300;DHT22;1158;48.750;9.078;2022-11-27T10:53:58;8.10;99.90
2300;DHT22;1158;48.750;9.078;2022-11-27T10:56:43;7.80;99.90
2300;DHT22;1158;48.750;9.078;2022-11-27T10:59:19;8.10;99.90
2300;DHT22;1158;48.750;9.078;2022-11-27T11:01:49;8.60;99.90
2300;DHT22;1158;48.750;9.078;2022-11-27T11:04:26;9.00;99.90
2300;DHT22;1158;48.750;9.078;2022-11-27T11:06:53;9.20;99.90
2300;DHT22;1158;48.750;9.078;2022-11-27T11:09:23;9.70;99.90
2300;DHT22;1158;48.750;9.078;2022-11-27T11:11:50;10.10;99.90
2300;DHT22;1158;48.750;9.078;2022-11-27T11:14:21;10.20;99.90
2300;DHT22;1158;48.750;9.078;2022-11-27T11:16:49;10.30;99.90
2300;DHT22;1158;48.750;9.078;2022-11-27T11:19:24;10.60;99.90
2300;DHT22;1158;48.750;9.078;2022-11-27T11:21:51;10.80;99.90
2300;DHT22;1158;48.750;9.078;2022-11-27T11:24:23;11.30;99.90
2300;DHT22;1158;48.750;9.078;2022-11-27T11:26:55;11.10;99.90
2300;DHT22;1158;48.750;9.078;2022-11-27T11:29:31;10.80;99.90
2300;DHT22;1158;48.750;9.078;2022-11-27T11:32:05;10.10;99.90
2300;DHT22;1158;48.750;9.078;2022-11-27T11:34:33;9.70;99.90
2300;DHT22;1158;48.750;9.078;2022-11-27T11:37:02;9.40;99.90
2300;DHT22;1158;48.750;9.078;2022-11-27T11:39:31;9.40;99.90
2300;DHT22;1158;48.750;9.078;2022-11-27T11:41:59;9.40;99.90
2300;DHT22;1158;48.750;9.078;2022-11-27T11:44:32;9.10;99.90
2300;DHT22;1158;48.750;9.078;2022-11-27T11:47:00;8.90;99.90
2300;DHT22;1158;48.750;9.078;2022-11-27T11:49:28;9.00;99.90
2300;DHT22;1158;48.750;9.078;2022-11-27T11:52:14;9.10;99.90
2300;DHT22;1158;48.750;9.078;2022-11-27T11:54:57;9.50;99.90
2300;DHT22;1158;48.750;9.078;2022-11-27T12:00:43;9.60;99.90
2300;DHT22;1158;48.750;9.078;2022-11-27T12:03:25;9.70;99.90
2300;DHT22;1158;48.750;9.078;2022-11-27T12:06:18;10.10;99.90
2300;DHT22;1158;48.750;9.078;2022-11-27T12:08:58;10.60;99.90
2300;DHT22;1158;48.750;9.078;2022-11-27T12:11:34;11.10;99.90
2300;DHT22;1158;48.750;9.078;2022-11-27T12:14:14;11.50;99.90
2300;DHT22;1158;48.750;9.078;2022-11-27T12:16:49;11.50;99.90
2300;DHT22;1158;48.750;9.078;2022-11-27T12:19:41;10.90;99.90
2300;DHT22;1158;48.750;9.078;2022-11-27T12:22:19;10.00;99.90
2300;DHT22;1158;48.750;9.078;2022-11-27T12:24:55;9.70;99.90
2300;DHT22;1158;48.750;9.078;2022-11-27T12:27:48;9.80;99.90
2300;DHT22;1158;48.750;9.078;2022-11-27T12:30:21;10.30;99.90
2300;DHT22;1158;48.750;9.078;2022-11-27T12:33:04;11.10;99.90
2300;DHT22;1158;48.750;9.078;2022-11-27T12:35:42;11.90;99.90
2300;DHT22;1158;48.750;9.078;2022-11-27T12:41:29;12.10;99.90
2300;DHT22;1158;48.750;9.078;2022-11-27T12:44:01;11.90;99.90
2300;DHT22;1158;48.750;9.078;2022-11-27T12:46:34;11.90;99.90
2300;DHT22;1158;48.750;9.078;2022-11-27T12:49:04;11.10;99.90
2300;DHT22;1158;48.750;9.078;2022-11-27T12:51:40;10.60;99.90
2300;DHT22;1158;48.750;9.078;2022-11-27T12:54:12;10.30;99.90
2300;DHT22;1158;48.750;9.078;2022-11-27T12:56:43;10.40;99.90
2300;DHT22;1158;48.750;9.078;2022-11-27T12:59:17;10.50;99.90
2300;DHT22;1158;48.750;9.078;2022-11-27T13:01:50;10.50;99.90
2300;DHT22;1158;48.750;9.078;2022-11-27T13:04:23;10.30;99.90
2300;DHT22;1158;48.750;9.078;2022-11-27T13:06:56;10.20;99.90
2300;DHT22;1158;48.750;9.078;2022-11-27T13:09:34;10.00;99.90
2300;DHT22;1158;48.750;9.078;2022-11-27T13:12:03;10.20;99.90
2300;DHT22;1158;48.750;9.078;2022-11-27T13:14:33;10.10;99.90
2300;DHT22;1158;48.750;9.078;2022-11-27T13:17:03;10.10;99.90
2300;DHT22;1158;48.750;9.078;2022-11-27T13:19:36;10.00;99.90
2300;DHT22;1158;48.750;9.078;2022-11-27T13:22:09;10.10;99.90
2300;DHT22;1158;48.750;9.078;2022-11-27T13:24:37;10.30;99.90
2300;DHT22;1158;48.750;9.078;2022-11-27T13:27:07;10.20;99.90
2300;DHT22;1158;48.750;9.078;2022-11-27T13:29:38;10.40;99.90
2300;DHT22;1158;48.750;9.078;2022-11-27T13:32:08;10.50;99.90
2300;DHT22;1158;48.750;9.078;2022-11-27T13:34:43;10.80;99.90
2300;DHT22;1158;48.750;9.078;2022-11-27T13:37:26;11.30;99.90
2300;DHT22;1158;48.750;9.078;2022-11-27T13:39:59;11.70;99.90
2300;DHT22;1158;48.750;9.078;2022-11-27T13:42:28;12.00;99.90
2300;DHT22;1158;48.750;9.078;2022-11-27T13:44:57;12.00;99.90
2300;DHT22;1158;48.750;9.078;2022-11-27T13:47:26;11.60;99.90
2300;DHT22;1158;48.750;9.078;2022-11-27T13:50:01;11.40;99.90
2300;DHT22;1158;48.750;9.078;2022-11-27T13:52:28;10.90;99.90
2300;DHT22;1158;48.750;9.078;2022-11-27T13:54:57;10.80;99.90
2300;DHT22;1158;48.750;9.078;2022-11-27T13:57:25;10.70;99.90
2300;DHT22;1158;48.750;9.078;2022-11-27T13:59:59;10.70;99.90
2300;DHT22;1158;48.750;9.078;2022-11-27T14:02:39;10.50;99.90
2300;DHT22;1158;48.750;9.078;2022-11-27T14:05:08;10.20;99.90
2300;DHT22;1158;48.750;9.078;2022-11-27T14:07:37;10.50;99.90
2300;DHT22;1158;48.750;9.078;2022-11-27T14:10:09;10.60;99.90
2300;DHT22;1158;48.750;9.078;2022-11-27T14:12:37;10.70;99.90
2300;DHT22;1158;48.750;9.078;2022-11-27T14:15:07;10.80;99.90
2300;DHT22;1158;48.750;9.078;2022-11-27T14:17:38;10.70;99.90
2300;DHT22;1158;48.750;9.078;2022-11-27T14:20:22;10.80;99.90
2300;DHT22;1158;48.750;9.078;2022-11-27T14:22:51;11.00;99.90
2300;DHT22;1158;48.750;9.078;2022-11-27T14:25:21;10.70;99.90
2300;DHT22;1158;48.750;9.078;2022-11-27T14:27:56;10.50;99.90
2300;DHT22;1158;48.750;9.078;2022-11-27T14:30:28;10.10;99.90
2300;DHT22;1158;48.750;9.078;2022-11-27T14:32:55;10.00;99.90
2300;DHT22;1158;48.750;9.078;2022-11-27T14:35:25;9.90;99.90
2300;DHT22;1158;48.750;9.078;2022-11-27T14:37:52;9.30;99.90
2300;DHT22;1158;48.750;9.078;2022-11-27T14:40:21;8.80;99.90
2300;DHT22;1158;48.750;9.078;2022-11-27T14:42:49;8.40;99.90
2300;DHT22;1158;48.750;9.078;2022-11-27T14:45:18;8.20;99.90
2300;DHT22;1158;48.750;9.078;2022-11-27T14:47:47;8.00;99.90
2300;DHT22;1158;48.750;9.078;2022-11-27T14:50:15;7.80;99.90
2300;DHT22;1158;48.750;9.078;2022-11-27T14:52:48;7.70;99.90
2300;DHT22;1158;48.750;9.078;2022-11-27T14:55:17;7.50;99.90
2300;DHT22;1158;48.750;9.078;2022-11-27T14:57:45;7.40;99.90
2300;DHT22;1158;48.750;9.078;2022-11-27T15:00:15;7.30;99.90
2300;DHT22;1158;48.750;9.078;2022-11-27T15:02:43;7.20;99.90
2300;DHT22;1158;48.750;9.078;2022-11-27T15:05:19;7.20;99.90
2300;DHT22;1158;48.750;9.078;2022-11-27T15:07:48;7.10;99.90
2300;DHT22;1158;48.750;9.078;2022-11-27T15:10:29;7.10;99.90
2300;DHT22;1158;48.750;9.078;2022-11-27T15:12:58;7.00;99.90
2300;DHT22;1158;48.750;9.078;2022-11-27T15:15:27;6.90;99.90
2300;DHT22;1158;48.750;9.078;2022-11-27T15:17:56;6.90;99.90
2300;DHT22;1158;48.750;9.078;2022-11-27T15:20:27;6.90;99.90
2300;DHT22;1158;48.750;9.078;2022-11-27T15:22:59;6.80;99.90
2300;DHT22;1158;48.750;9.078;2022-11-27T15:25:35;6.80;99.90
2300;DHT22;1158;48.750;9.078;2022-11-27T15:28:04;6.70;99.90
2300;DHT22;1158;48.750;9.078;2022-11-27T15:30:45;6.70;99.90
2300;DHT22;1158;48.750;9.078;2022-11-27T15:33:23;6.60;99.90
2300;DHT22;1158;48.750;9.078;2022-11-27T15:35:50;6.60;99.90
2300;DHT22;1158;48.750;9.078;2022-11-27T15:38:19;6.50;99.90
2300;DHT22;1158;48.750;9.078;2022-11-27T15:40:56;6.50;99.90
2300;DHT22;1158;48.750;9.078;2022-11-27T15:43:25;6.40;99.90
2300;DHT22;1158;48.750;9.078;2022-11-27T15:45:52;6.40;99.90
2300;DHT22;1158;48.750;9.078;2022-11-27T15:48:20;6.40;99.90
2300;DHT22;1158;48.750;9.078;2022-11-27T15:50:47;6.30;99.90
2300;DHT22;1158;48.750;9.078;2022-11-27T15:53:14;6.30;99.90
2300;DHT22;1158;48.750;9.078;2022-11-27T15:55:42;6.20;99.90
2300;DHT22;1158;48.750;9.078;2022-11-27T15:58:09;6.20;99.90
2300;DHT22;1158;48.750;9.078;2022-11-27T16:00:35;6.30;99.90
2300;DHT22;1158;48.750;9.078;2022-11-27T16:03:02;6.30;99.90
2300;DHT22;1158;48.750;9.078;2022-11-27T16:05:29;6.40;99.90
2300;DHT22;1158;48.750;9.078;2022-11-27T16:07:56;6.40;99.90
2300;DHT22;1158;48.750;9.078;2022-11-27T16:10:22;6.40;99.90
2300;DHT22;1158;48.750;9.078;2022-11-27T16:12:51;6.40;99.90
2300;DHT22;1158;48.750;9.078;2022-11-27T16:15:19;6.30;99.90
2300;DHT22;1158;48.750;9.078;2022-11-27T16:17:46;6.30;99.90
2300;DHT22;1158;48.750;9.078;2022-11-27T16:20:13;6.20;99.90
2300;DHT22;1158;48.750;9.078;2022-11-27T16:22:39;6.10;99.90
2300;DHT22;1158;48.750;9.078;2022-11-27T16:25:07;6.00;99.90
2300;DHT22;1158;48.750;9.078;2022-11-27T16:27:33;6.00;99.90
2300;DHT22;1158;48.750;9.078;2022-11-27T16:30:02;6.00;99.90
2300;DHT22;1158;48.750;9.078;2022-11-27T16:32:29;6.00;99.90